createdAt,value
2022-08-08T00:01:15.684Z,101688.34
2022-08-08T00:03:59.615Z,101681.97
2022-08-08T00:06:47.538Z,101682.34
2022-08-08T00:09:16.979Z,101682.72
2022-08-08T00:12:10.760Z,101675.97
2022-08-08T00:15:00.571Z,101674.69
2022-08-08T00:18:03.947Z,101679.66
2022-08-08T00:20:50.478Z,101674.78
2022-08-08T00:23:43.531Z,101680.63
2022-08-08T00:26:29.362Z,101674.91
2022-08-08T00:29:45.153Z,101684.28
2022-08-08T00:32:38.430Z,101690.28
2022-08-08T00:35:21.023Z,101691.66
2022-08-08T00:38:30.909Z,101692.03
2022-08-08T00:41:54.580Z,101695.97
2022-08-08T00:44:24.898Z,101694.69
2022-08-08T00:47:36.919Z,101688.59
2022-08-08T00:51:01.912Z,101689.78
2022-08-08T00:53:57.281Z,101692.88
2022-08-08T00:56:53.925Z,101696.97
2022-08-08T00:59:43.861Z,101698.19
2022-08-08T01:03:18.236Z,101698.56
2022-08-08T01:06:00.930Z,101697.06
2022-08-08T01:09:35.768Z,101701.84
2022-08-08T01:12:17.671Z,101694.91
2022-08-08T01:14:57.374Z,101701.53
2022-08-08T01:18:50.784Z,101693.78
2022-08-08T01:21:12.036Z,101699.56
2022-08-08T01:24:05.998Z,101680.09
2022-08-08T01:27:06.938Z,101692.19
2022-08-08T01:29:59.828Z,101681.84
2022-08-08T01:33:02.285Z,101682.03
2022-08-08T01:36:04.629Z,101685.13
2022-08-08T01:39:04.442Z,101680.91
2022-08-08T01:41:34.063Z,101685.88
2022-08-08T01:44:00.906Z,101682.47
2022-08-08T01:46:58.333Z,101687.91
2022-08-08T01:49:48.442Z,101692.69
2022-08-08T01:55:15.069Z,101689.31
2022-08-08T01:56:28.109Z,101690.34
2022-08-08T01:59:38.181Z,101702.22
2022-08-08T02:02:41.467Z,101696.13
2022-08-08T02:05:33.561Z,101710.75
2022-08-08T02:08:36.644Z,101701.94
2022-08-08T02:11:23.183Z,101702.94
2022-08-08T02:14:15.138Z,101696.22
2022-08-08T02:16:56.983Z,101694.53
2022-08-08T02:20:07.534Z,101696.75
2022-08-08T02:23:16.365Z,101700.50
2022-08-08T02:26:15.817Z,101696.28
2022-08-08T02:28:58.178Z,101704.13
2022-08-08T02:32:00.847Z,101701.78
2022-08-08T02:35:07.518Z,101702.78
2022-08-08T02:38:25.101Z,101697.91
2022-08-08T02:41:57.887Z,101702.13
2022-08-08T02:44:57.264Z,101705.03
2022-08-08T02:48:02.988Z,101701.81
2022-08-08T02:51:00.730Z,101696.97
2022-08-08T02:53:47.338Z,101699.16
2022-08-08T02:56:25.910Z,101698.69
2022-08-08T02:59:37.129Z,101701.78
2022-08-08T03:02:54.345Z,101700.25
2022-08-08T03:05:46.789Z,101704.19
2022-08-08T03:08:26.902Z,101705.38
2022-08-08T03:11:47.572Z,101707.41
2022-08-08T03:15:55.979Z,101702.34
2022-08-08T03:17:39.787Z,101700.69
2022-08-08T03:20:08.266Z,101694.56
2022-08-08T03:22:47.083Z,101692.69
2022-08-08T03:25:18.393Z,101702.88
2022-08-08T03:27:56.320Z,101701.00
2022-08-08T03:30:25.072Z,101702.88
2022-08-08T03:33:56.085Z,101695.56
2022-08-08T03:35:58.258Z,101694.75
2022-08-08T03:38:54.600Z,101701.88
2022-08-08T03:41:32.154Z,101708.13
2022-08-08T03:43:59.714Z,101702.72
2022-08-08T03:46:32.306Z,101708.13
2022-08-08T03:49:26.596Z,101708.13
2022-08-08T03:51:53.399Z,101706.44
2022-08-08T03:54:51.939Z,101713.06
2022-08-08T03:58:31.085Z,101708.50
2022-08-08T04:00:11.145Z,101712.22
2022-08-08T04:02:47.785Z,101712.41
2022-08-08T04:05:19.560Z,101720.53
2022-08-08T04:07:54.013Z,101720.53
2022-08-08T04:10:20.708Z,101720.72
2022-08-08T04:12:49.805Z,101728.69
2022-08-08T04:15:16.520Z,101731.41
2022-08-08T04:17:57.871Z,101725.09
2022-08-08T04:20:28.647Z,101731.19
2022-08-08T04:22:56.748Z,101727.81
2022-08-08T04:25:29.820Z,101730.53
2022-08-08T04:28:02.157Z,101733.25
2022-08-08T04:30:44.831Z,101736.63
2022-08-08T04:33:11.585Z,101736.63
2022-08-08T04:35:41.810Z,101732.91
2022-08-08T04:38:21.395Z,101736.28
2022-08-08T04:40:53.338Z,101738.16
2022-08-08T04:43:22.118Z,101737.97
2022-08-08T04:45:50.204Z,101737.78
2022-08-08T04:48:17.500Z,101741.38
2022-08-08T04:50:48.705Z,101742.88
2022-08-08T04:54:27.603Z,101744.41
2022-08-08T04:56:04.151Z,101745.91
2022-08-08T04:58:31.113Z,101750.78
2022-08-08T05:00:59.764Z,101748.56
2022-08-08T05:04:11.443Z,101749.88
2022-08-08T05:06:25.927Z,101750.41
2022-08-08T05:08:56.128Z,101755.28
2022-08-08T05:11:29.010Z,101755.56
2022-08-08T05:14:05.120Z,101756.13
2022-08-08T05:16:53.072Z,101757.44
2022-08-08T05:20:04.189Z,101755.03
2022-08-08T05:22:08.114Z,101758.88
2022-08-08T05:24:37.232Z,101750.22
2022-08-08T05:27:04.714Z,101755.94
2022-08-08T05:29:31.817Z,101758.13
2022-08-08T05:32:06.202Z,101755.72
2022-08-08T05:34:36.426Z,101758.53
2022-08-08T05:37:07.487Z,101759.88
2022-08-08T05:39:51.221Z,101766.25
2022-08-08T05:42:25.566Z,101767.41
2022-08-08T05:44:53.920Z,101772.28
2022-08-08T05:47:23.946Z,101771.56
2022-08-08T05:49:58.571Z,101774.56
2022-08-08T05:52:33.935Z,101779.28
2022-08-08T05:55:09.796Z,101781.25
2022-08-08T05:58:05.625Z,101780.69
2022-08-08T06:00:34.371Z,101771.81
2022-08-08T06:03:24.601Z,101778.03
2022-08-08T06:06:01.304Z,101776.25
2022-08-08T06:08:54.764Z,101776.81
2022-08-08T06:11:22.478Z,101780.47
2022-08-08T06:13:54.989Z,101781.44
2022-08-08T06:16:27.751Z,101785.06
2022-08-08T06:19:00.246Z,101786.69
2022-08-08T06:21:48.412Z,101790.13
2022-08-08T06:24:22.992Z,101794.47
2022-08-08T06:27:04.315Z,101790.41
2022-08-08T06:29:59.170Z,101793.03
2022-08-08T06:32:32.056Z,101795.66
2022-08-08T06:36:03.855Z,101800.31
2022-08-08T06:37:57.630Z,101802.28
2022-08-08T06:40:27.000Z,101793.34
2022-08-08T06:43:09.528Z,101793.88
2022-08-08T06:45:40.292Z,101795.41
2022-08-08T06:48:07.219Z,101797.00
2022-08-08T06:50:41.795Z,101797.53
2022-08-08T06:53:16.993Z,101802.00
2022-08-08T06:55:46.886Z,101800.81
2022-08-08T06:58:14.399Z,101799.66
2022-08-08T07:00:46.116Z,101799.31
2022-08-08T07:03:52.183Z,101805.66
2022-08-08T07:06:22.316Z,101809.09
2022-08-08T07:08:57.072Z,101811.28
2022-08-08T07:11:51.310Z,101802.72
2022-08-08T07:14:26.275Z,101814.53
2022-08-08T07:17:09.060Z,101809.97
2022-08-08T07:19:45.079Z,101813.97
2022-08-08T07:22:22.187Z,101816.09
2022-08-08T07:25:04.144Z,101819.25
2022-08-08T07:28:00.793Z,101822.47
2022-08-08T07:30:30.694Z,101831.56
2022-08-08T07:32:59.536Z,101829.03
2022-08-08T07:35:28.631Z,101822.78
2022-08-08T07:38:09.865Z,101819.03
2022-08-08T07:40:38.351Z,101827.88
2022-08-08T07:43:09.358Z,101824.31
2022-08-08T07:46:05.565Z,101825.00
2022-08-08T07:48:24.203Z,101820.00
2022-08-08T07:50:53.894Z,101829.69
2022-08-08T07:54:02.308Z,101830.13
2022-08-08T07:56:36.132Z,101832.69
2022-08-08T07:59:08.941Z,101837.78
2022-08-08T08:02:35.578Z,101837.78
2022-08-08T08:04:32.574Z,101852.31
2022-08-08T08:07:02.611Z,101838.22
2022-08-08T08:09:36.916Z,101843.25
2022-08-08T08:12:07.290Z,101840.09
2022-08-08T08:14:41.871Z,101846.84
2022-08-08T08:17:12.183Z,101843.50
2022-08-08T08:19:45.754Z,101851.69
2022-08-08T08:22:12.593Z,101855.06
2022-08-08T08:24:42.969Z,101853.78
2022-08-08T08:27:12.665Z,101851.94
2022-08-08T08:29:39.701Z,101847.31
2022-08-08T08:32:09.235Z,101843.91
2022-08-08T08:34:48.458Z,101847.69
2022-08-08T08:37:20.421Z,101845.38
2022-08-08T08:40:00.119Z,101845.59
2022-08-08T08:42:35.511Z,101858.22
2022-08-08T08:45:10.346Z,101853.53
2022-08-08T08:47:52.955Z,101851.22
2022-08-08T08:50:35.058Z,101854.59
2022-08-08T08:53:28.077Z,101854.16
2022-08-08T08:56:01.943Z,101853.72
2022-08-08T08:58:39.884Z,101852.22
2022-08-08T09:01:13.600Z,101851.38
2022-08-08T09:03:51.611Z,101857.66
2022-08-08T09:06:28.495Z,101858.50
2022-08-08T09:09:26.189Z,101858.25
2022-08-08T09:12:02.355Z,101855.28
2022-08-08T09:14:34.356Z,101865.38
2022-08-08T09:17:07.064Z,101862.38
2022-08-08T09:21:58.399Z,101864.03
2022-08-08T09:22:27.196Z,101858.50
2022-08-08T09:24:55.884Z,101861.44
2022-08-08T09:27:55.847Z,101859.94
2022-08-08T09:30:14.714Z,101853.56
2022-08-08T09:32:50.274Z,101864.09
2022-08-08T09:35:32.061Z,101853.31
2022-08-08T09:38:05.838Z,101854.56
2022-08-08T09:40:46.577Z,101851.16
2022-08-08T09:44:03.035Z,101847.28
2022-08-08T09:46:25.472Z,101848.09
2022-08-08T09:49:18.520Z,101853.53
2022-08-08T09:52:06.428Z,101856.22
2022-08-08T09:54:59.436Z,101849.84
2022-08-08T09:57:35.111Z,101848.31
2022-08-08T10:00:37.413Z,101847.84
2022-08-08T10:03:03.944Z,101852.47
2022-08-08T10:05:35.122Z,101850.47
2022-08-08T10:08:02.397Z,101845.13
2022-08-08T10:10:38.167Z,101855.84
2022-08-08T10:13:25.990Z,101852.22
2022-08-08T10:16:02.033Z,101848.56
2022-08-08T10:18:33.540Z,101848.72
2022-08-08T10:21:08.254Z,101844.81
2022-08-08T10:23:58.014Z,101836.50
2022-08-08T10:26:52.416Z,101842.28
2022-08-08T10:29:56.950Z,101850.38
2022-08-08T10:32:38.223Z,101836.72
2022-08-08T10:36:06.369Z,101840.59
2022-08-08T10:38:05.139Z,101827.59
2022-08-08T10:40:33.181Z,101833.25
2022-08-08T10:43:04.582Z,101837.19
2022-08-08T10:45:42.435Z,101835.06
2022-08-08T10:48:57.737Z,101831.00
2022-08-08T10:51:31.123Z,101828.59
2022-08-08T10:54:07.234Z,101827.69
2022-08-08T10:56:35.609Z,101826.97
2022-08-08T10:59:12.183Z,101826.41
2022-08-08T11:01:49.367Z,101830.88
2022-08-08T11:04:38.662Z,101829.56
2022-08-08T11:07:06.791Z,101826.72
2022-08-08T11:09:34.460Z,101828.16
2022-08-08T11:12:13.192Z,101844.06
2022-08-08T11:14:57.099Z,101839.81
2022-08-08T11:17:59.718Z,101840.50
2022-08-08T11:22:41.670Z,101835.94
2022-08-08T11:25:14.419Z,101832.97
2022-08-08T11:27:44.635Z,101835.22
2022-08-08T11:30:20.183Z,101833.91
2022-08-08T11:32:48.382Z,101834.13
2022-08-08T11:35:27.572Z,101828.38
2022-08-08T11:38:38.625Z,101830.31
2022-08-08T11:40:52.445Z,101827.09
2022-08-08T11:43:21.764Z,101829.72
2022-08-08T11:46:13.355Z,101825.53
2022-08-08T11:48:39.282Z,101818.88
2022-08-08T11:51:38.185Z,101814.63
2022-08-08T11:53:55.273Z,101811.81
2022-08-08T11:56:35.402Z,101819.59
2022-08-08T11:59:10.289Z,101812.94
2022-08-08T12:01:37.493Z,101813.03
2022-08-08T12:04:05.746Z,101812.53
2022-08-08T12:06:33.537Z,101806.44
2022-08-08T12:09:08.264Z,101805.34
2022-08-08T12:11:41.222Z,101800.91
2022-08-08T12:14:10.904Z,101800.06
2022-08-08T12:16:49.033Z,101816.38
2022-08-08T12:19:15.827Z,101807.25
2022-08-08T12:21:59.801Z,101798.16
2022-08-08T12:24:29.771Z,101805.50
2022-08-08T12:26:56.950Z,101805.66
2022-08-08T12:29:42.174Z,101803.63
2022-08-08T12:32:20.389Z,101808.81
2022-08-08T12:35:13.262Z,101794.44
2022-08-08T12:38:01.596Z,101800.56
2022-08-08T12:40:56.500Z,101801.47
2022-08-08T12:43:32.087Z,101800.13
2022-08-08T12:46:02.923Z,101806.25
2022-08-08T12:48:37.574Z,101795.44
2022-08-08T12:51:07.618Z,101794.63
2022-08-08T12:53:54.423Z,101803.50
2022-08-08T12:56:39.106Z,101801.88
2022-08-08T12:59:36.205Z,101797.28
2022-08-08T13:02:09.389Z,101790.47
2022-08-08T13:04:36.049Z,101795.50
2022-08-08T13:07:06.848Z,101796.66
2022-08-08T13:10:04.100Z,101791.00
2022-08-08T13:12:36.002Z,101793.84
2022-08-08T13:15:09.656Z,101787.81
2022-08-08T13:18:07.824Z,101783.63
2022-08-08T13:20:27.110Z,101798.50
2022-08-08T13:23:30.071Z,101794.81
2022-08-08T13:25:43.454Z,101788.66
2022-08-08T13:28:09.888Z,101787.22
2022-08-08T13:30:36.368Z,101791.66
2022-08-08T13:33:04.181Z,101787.78
2022-08-08T13:35:41.134Z,101786.81
2022-08-08T13:38:13.108Z,101786.09
2022-08-08T13:40:44.826Z,101788.47
2022-08-08T13:43:12.392Z,101780.06
2022-08-08T13:45:39.067Z,101789.34
2022-08-08T13:48:14.621Z,101781.56
2022-08-08T13:50:55.081Z,101788.91
2022-08-08T13:53:34.007Z,101796.16
2022-08-08T13:56:11.333Z,101783.47
2022-08-08T13:58:48.784Z,101785.94
2022-08-08T14:01:32.778Z,101785.63
2022-08-08T14:04:21.186Z,101783.94
2022-08-08T14:06:48.677Z,101781.44
2022-08-08T14:09:29.162Z,101785.03
2022-08-08T14:12:00.517Z,101781.44
2022-08-08T14:14:36.551Z,101782.81
2022-08-08T14:17:07.649Z,101780.22
2022-08-08T14:19:57.149Z,101774.88
2022-08-08T14:22:37.251Z,101786.91
2022-08-08T14:25:07.741Z,101782.91
2022-08-08T14:27:40.336Z,101785.53
2022-08-08T14:30:18.393Z,101780.44
2022-08-08T14:32:46.815Z,101776.91
2022-08-08T14:35:35.005Z,101781.19
2022-08-08T14:38:09.555Z,101781.31
2022-08-08T14:40:53.612Z,101786.50
2022-08-08T14:44:01.987Z,101787.84
2022-08-08T14:46:16.572Z,101778.38
2022-08-08T14:48:57.057Z,101781.06
2022-08-08T14:51:47.245Z,101774.03
2022-08-08T14:54:14.131Z,101772.28
2022-08-08T14:56:48.171Z,101767.16
2022-08-08T14:59:22.593Z,101764.56
2022-08-08T15:02:05.175Z,101760.38
2022-08-08T15:04:35.111Z,101763.63
2022-08-08T15:07:02.773Z,101771.88
2022-08-08T15:09:30.986Z,101763.88
2022-08-08T15:11:58.899Z,101758.38
2022-08-08T15:14:26.797Z,101758.97
2022-08-08T15:16:53.977Z,101754.28
2022-08-08T15:19:21.196Z,101755.44
2022-08-08T15:21:50.420Z,101759.63
2022-08-08T15:24:17.052Z,101757.78
2022-08-08T15:26:46.618Z,101749.03
2022-08-08T15:29:19.182Z,101759.06
2022-08-08T15:32:03.468Z,101757.47
2022-08-08T15:34:36.505Z,101749.28
2022-08-08T15:37:05.762Z,101757.63
2022-08-08T15:39:37.614Z,101748.28
2022-08-08T15:42:10.647Z,101761.81
2022-08-08T15:44:42.058Z,101755.47
2022-08-08T15:47:15.604Z,101759.06
2022-08-08T15:49:47.872Z,101756.31
2022-08-08T15:52:15.982Z,101757.16
2022-08-08T15:54:46.193Z,101754.13
2022-08-08T15:57:15.669Z,101754.47
2022-08-08T16:00:06.907Z,101756.28
2022-08-08T16:02:31.239Z,101748.38
2022-08-08T16:04:59.974Z,101760.44
2022-08-08T16:07:39.117Z,101752.88
2022-08-08T16:13:03.013Z,101748.94
2022-08-08T16:13:30.351Z,101763.72
2022-08-08T16:15:59.215Z,101757.19
2022-08-08T16:18:27.599Z,101750.50
2022-08-08T16:21:00.508Z,101748.16
2022-08-08T16:23:31.742Z,101757.97
2022-08-08T16:26:03.863Z,101749.28
2022-08-08T16:28:35.573Z,101750.06
2022-08-08T16:31:04.653Z,101748.94
2022-08-08T16:33:38.616Z,101753.63
2022-08-08T16:36:08.934Z,101755.81
2022-08-08T16:38:44.661Z,101751.72
2022-08-08T16:41:20.679Z,101741.56
2022-08-08T16:43:51.556Z,101752.69
2022-08-08T16:46:38.872Z,101743.06
2022-08-08T16:49:07.891Z,101759.56
2022-08-08T16:55:03.606Z,101759.59
2022-08-08T16:55:05.136Z,101753.41
2022-08-08T16:57:40.713Z,101762.47
2022-08-08T17:00:01.545Z,101758.19
2022-08-08T17:02:39.434Z,101763.34
2022-08-08T17:05:13.703Z,101762.84
2022-08-08T17:07:40.933Z,101758.38
2022-08-08T17:10:09.597Z,101758.84
2022-08-08T17:12:36.458Z,101762.09
2022-08-08T17:15:17.389Z,101756.44
2022-08-08T17:18:02.488Z,101756.56
2022-08-08T17:20:39.682Z,101763.38
2022-08-08T17:23:25.869Z,101764.59
2022-08-08T17:26:05.123Z,101765.25
2022-08-08T17:28:35.572Z,101757.03
2022-08-08T17:31:39.507Z,101758.75
2022-08-08T17:34:53.490Z,101764.41
2022-08-08T17:36:37.864Z,101761.25
2022-08-08T17:39:46.157Z,101765.31
2022-08-08T17:42:08.774Z,101761.00
2022-08-08T17:44:37.412Z,101772.72
2022-08-08T17:47:06.374Z,101776.31
2022-08-08T17:49:42.478Z,101763.00
2022-08-08T17:52:10.083Z,101784.25
2022-08-08T17:54:36.643Z,101772.56
2022-08-08T17:57:03.246Z,101773.03
2022-08-08T17:59:36.059Z,101767.69
2022-08-08T18:02:18.745Z,101778.69
2022-08-08T18:04:51.056Z,101783.28
2022-08-08T18:08:02.735Z,101790.69
2022-08-08T18:10:05.032Z,101787.63
2022-08-08T18:12:31.504Z,101788.16
2022-08-08T18:14:57.987Z,101791.16
2022-08-08T18:17:28.517Z,101795.84
2022-08-08T18:20:44.234Z,101788.09
2022-08-08T18:22:51.094Z,101786.09
2022-08-08T18:25:17.922Z,101799.91
2022-08-08T18:27:45.677Z,101794.56
2022-08-08T18:30:13.423Z,101796.69
2022-08-08T18:32:41.901Z,101797.88
2022-08-08T18:35:15.514Z,101799.56
2022-08-08T18:37:48.392Z,101805.03
2022-08-08T18:40:15.389Z,101809.88
2022-08-08T18:42:45.790Z,101813.84
2022-08-08T18:45:45.014Z,101814.47
2022-08-08T18:48:07.716Z,101823.53
2022-08-08T18:50:39.495Z,101825.78
2022-08-08T18:53:06.451Z,101820.28
2022-08-08T18:55:33.874Z,101827.66
2022-08-08T18:58:00.517Z,101831.28
2022-08-08T19:00:27.038Z,101828.19
2022-08-08T19:02:57.959Z,101839.75
2022-08-08T19:05:44.060Z,101852.94
2022-08-08T19:08:24.708Z,101852.41
2022-08-08T19:10:59.697Z,101852.97
2022-08-08T19:13:38.422Z,101855.28
2022-08-08T19:16:19.308Z,101864.38
2022-08-08T19:18:49.694Z,101870.22
2022-08-08T19:21:23.069Z,101872.22
2022-08-08T19:23:57.972Z,101877.00
2022-08-08T19:26:30.804Z,101874.38
2022-08-08T19:28:59.361Z,101882.72
2022-08-08T19:31:31.761Z,101880.66
2022-08-08T19:34:15.331Z,101897.00
2022-08-08T19:36:51.904Z,101900.19
2022-08-08T19:39:19.373Z,101894.34
2022-08-08T19:41:46.127Z,101901.97
2022-08-08T19:44:26.785Z,101900.78
2022-08-08T19:47:01.681Z,101905.22
2022-08-08T19:49:36.620Z,101905.88
2022-08-08T19:52:05.771Z,101909.75
2022-08-08T19:54:32.294Z,101906.59
2022-08-08T19:56:58.826Z,101906.81
2022-08-08T19:59:30.924Z,101913.13
2022-08-08T20:02:04.678Z,101909.56
2022-08-08T20:04:33.229Z,101914.84
2022-08-08T20:08:30.195Z,101913.59
2022-08-08T20:09:55.711Z,101918.84
2022-08-08T20:12:34.918Z,101920.97
2022-08-08T20:15:14.530Z,101911.06
2022-08-08T20:17:45.035Z,101915.28
2022-08-08T20:20:18.998Z,101915.72
2022-08-08T20:22:46.018Z,101925.41
2022-08-08T20:25:20.421Z,101913.19
2022-08-08T20:27:49.409Z,101921.84
2022-08-08T20:30:52.715Z,101921.63
2022-08-08T20:33:18.470Z,101920.34
2022-08-08T20:35:58.707Z,101925.59
2022-08-08T20:38:32.807Z,101917.56
2022-08-08T20:41:12.207Z,101917.34
2022-08-08T20:43:48.100Z,101922.63
2022-08-08T20:46:16.542Z,101935.25
2022-08-08T20:48:43.839Z,101929.78
2022-08-08T20:51:10.689Z,101924.06
2022-08-08T20:53:59.861Z,101919.41
2022-08-08T20:56:35.540Z,101932.69
2022-08-08T20:59:06.258Z,101920.47
2022-08-08T21:01:44.399Z,101928.22
2022-08-08T21:04:23.306Z,101930.31
2022-08-08T21:06:53.033Z,101918.78
2022-08-08T21:09:21.501Z,101927.38
2022-08-08T21:11:52.097Z,101924.84
2022-08-08T21:14:33.799Z,101932.63
2022-08-08T21:17:06.107Z,101929.25
2022-08-08T21:19:44.267Z,101930.72
2022-08-08T21:22:13.795Z,101934.91
2022-08-08T21:24:42.119Z,101930.69
2022-08-08T21:28:05.081Z,101927.50
2022-08-08T21:30:10.912Z,101929.59
2022-08-08T21:32:44.227Z,101930.84
2022-08-08T21:36:14.645Z,101931.22
2022-08-08T21:38:03.987Z,101942.78
2022-08-08T21:40:32.256Z,101940.47
2022-08-08T21:42:59.273Z,101941.06
2022-08-08T21:48:00.312Z,101947.16
2022-08-08T21:48:16.329Z,101945.25
2022-08-08T21:50:49.537Z,101946.91
2022-08-08T21:54:34.462Z,101958.66
2022-08-08T21:56:26.046Z,101953.97
2022-08-08T21:58:54.989Z,101951.22
2022-08-08T22:01:27.869Z,101958.31
2022-08-08T22:04:06.497Z,101945.44
2022-08-08T22:06:33.328Z,101957.19
2022-08-08T22:09:08.362Z,101970.59
2022-08-08T22:11:59.565Z,101955.00
2022-08-08T22:14:23.662Z,101963.09
2022-08-08T22:16:51.157Z,101961.16
2022-08-08T22:19:23.942Z,101960.91
2022-08-08T22:21:51.535Z,101965.28
2022-08-08T22:24:18.045Z,101957.88
2022-08-08T22:27:02.037Z,101956.75
2022-08-08T22:30:01.540Z,101961.97
2022-08-08T22:32:18.014Z,101968.44
2022-08-08T22:34:50.842Z,101966.44
2022-08-08T22:37:48.924Z,101983.41
2022-08-08T22:40:16.577Z,101978.72
2022-08-08T22:42:47.425Z,101982.25
2022-08-08T22:45:15.117Z,101985.94
2022-08-08T22:47:47.428Z,101972.03
2022-08-08T22:50:26.392Z,101971.06
2022-08-08T22:54:28.117Z,101977.94
2022-08-08T22:55:58.820Z,101979.75
2022-08-08T22:58:33.159Z,101981.16
2022-08-08T23:02:01.314Z,101980.25
2022-08-08T23:03:55.996Z,101982.69
2022-08-08T23:06:26.763Z,101980.53
2022-08-08T23:09:00.049Z,101986.53
2022-08-08T23:12:11.540Z,101984.19
2022-08-08T23:14:20.741Z,101984.59
2022-08-08T23:16:54.723Z,101986.84
2022-08-08T23:19:27.404Z,101996.25
2022-08-08T23:21:57.646Z,101994.75
2022-08-08T23:24:24.262Z,101979.78
2022-08-08T23:26:55.660Z,101990.84
2022-08-08T23:29:23.742Z,101988.50
2022-08-08T23:31:50.152Z,101993.50
2022-08-08T23:34:19.695Z,101996.41
2022-08-08T23:36:47.635Z,102004.94
2022-08-08T23:39:15.523Z,101998.00
2022-08-08T23:41:46.991Z,101995.66
2022-08-08T23:44:16.907Z,101995.81
2022-08-08T23:49:06.163Z,101995.19
2022-08-08T23:49:32.944Z,102012.53
2022-08-08T23:52:05.796Z,101992.81
2022-08-08T23:54:41.759Z,101995.53
2022-08-08T23:57:26.828Z,101996.09
